No requiere especial atencion con respecto al clima.   -   No hay Alarmas

Informes METAR

 

KSJC - San Jose, California, USA
Distancia de la estación: NE 14km
Actualización: 21/07/2018 06:53
Despejado
Despejado
 Viento de O
Viento: O 13 km/h
Temperatura: 22°C
Rocío: 15°C
Humedad: 65%
Barómetro: 1013.2 hPa
Nubes: Despejado
Visibilidad: 16 km
2018/07/21 04:53 KSJC 210453Z 26007KT 10SM CLR 22/15 A2992 RMK AO2 SLP132 T02220150
KNUQ - Moffett Nas/Mtn, California, USA
Distancia de la estación: N 14km
Actualización: 21/07/2018 06:56
Despejado
Despejado
 Viento de NO
Viento: NO 13 km/h
Temperatura: 18°C
Rocío: 16°C
Humedad: 88%
Barómetro: 1013.5 hPa
Nubes: Despejado
Visibilidad: 16 km
2018/07/21 04:56 KNUQ 210456Z 32007KT 10SM CLR 18/16 A2993 RMK AO2 SLP138 T01830161
 
KPAO - Palo Alto, California, USA
Distancia de la estación: NNO 23km
Actualización: 21/07/2018 05:47
NOT Current
Poco nuboso
Poco nuboso
 Viento de NO
Viento: NO 22 km/h
Temperatura: 24°C
Rocío: 18°C
Humedad: 69%
Barómetro: 1013.2 hPa
Nubes: Poco nuboso
Visibilidad: 16 km
Detalles de las nubes: Poco nuboso 3658 m
2018/07/21 03:47 KPAO 210347Z 32012KT 10SM FEW120 24/18 A2992
KRHV - San Jose/Reid, California, USA
Distancia de la estación: ENE 19km
Actualización: 21/07/2018 06:47
Despejado
Despejado
 Viento de NO
Viento: NO 9 km/h
Temperatura: 23°C
Rocío: 15°C
Humedad: 61%
Barómetro: 1012.9 hPa
Nubes: Despejado
Visibilidad: 16 km
2018/07/21 04:47 KRHV 210447Z 32005KT 10SM SKC 23/15 A2991 RMK LAST
 
KOAK - Oakland, California, USA
Distancia de la estación: NNO 50km
Actualización: 21/07/2018 06:53
Poco nuboso
Poco nuboso
 Viento de NO
Viento: NO 20 km/h
Temperatura: 16°C
Rocío: 14°C
Humedad: 88%
Barómetro: 1013.5 hPa
Nubes: Poco nuboso
Visibilidad: 16 km
Detalles de las nubes: Poco nuboso 152 m
Poco nuboso 5486 m
2018/07/21 04:53 KOAK 210453Z 32011KT 10SM FEW005 FEW180 16/14 A2993 RMK AO2 SLP135 T01610144
KSQL - San Carlos Airpo, California, USA
Distancia de la estación: NO 34km
Actualización: 21/07/2018 07:20
Despejado
Despejado
 Viento de NNE
Viento: NNE 6 km/h
Temperatura: 20°C
Rocío: 15°C
Humedad: 73%
Barómetro: 1013.2 hPa
Nubes: Despejado
Visibilidad: 16 km
2018/07/21 05:20 KSQL 210520Z AUTO 03003KT 10SM CLR 20/15 A2992 RMK AO2
 
KSFO - San Francisco, California, USA
Distancia de la estación: NO 49km
Actualización: 21/07/2018 06:56
Poco nuboso
Poco nuboso
 Viento de ONO
Viento: ONO 20 km/h
Temperatura: 17°C
Rocío: 14°C
Humedad: 83%
Barómetro: 1013.2 hPa
Nubes: Poco nuboso
Visibilidad: 16 km
Detalles de las nubes: Poco nuboso 91 m
2018/07/21 04:56 KSFO 210456Z 30011KT 10SM FEW003 17/14 A2992 RMK AO2 SLP132 T01720139 $
KE16 - San Martin, California, USA
Distancia de la estación: ESE 43km
Actualización: 18/07/2018 22:15
NOT Current
Despejado
Despejado
 Viento de S
Viento: S 11 km/h
Temperatura: 28°C
Rocío: 12°C
Humedad: 37%
Barómetro: 1015.2 hPa
Nubes: Despejado
Visibilidad: 14 km
2018/07/18 20:15 KE16 182015Z AUTO 17006KT 9SM CLR 28/12 A2998 RMK AO2
 
KWVI - Watsonville, California, USA
Distancia de la estación: SSE 44km
Actualización: 21/07/2018 07:15
Muy nuboso
Muy nuboso
 Viento de OSO
Viento: OSO 7 km/h
Temperatura: 15°C
Rocío: 15°C
Humedad: 100%
Barómetro: 1014.9 hPa
Nubes: Muy nuboso
Visibilidad: 16 km
Detalles de las nubes: Muy nuboso 122 m
2018/07/21 05:15 KWVI 210515Z AUTO 25004KT 10SM BKN004 15/15 A2997 RMK AO2 T01500150
KHAF - Half Moon Bay, California, USA
Distancia de la estación: ONO 50km
Actualización: 21/07/2018 07:20
Neblina, Cubierto
Neblina, Cubierto
 Viento de SSE
Viento: SSE 11 km/h
Temperatura: 15°C
Rocío: 14°C
Humedad: 94%
Barómetro: 1014.6 hPa
Resumen: Neblina
Nubes: Cubierto
Visibilidad: 10 km
Detalles de las nubes: Cubierto 122 m
2018/07/21 05:20 KHAF 210520Z AUTO 15006KT 6SM BR OVC004 15/14 A2996 RMK AO2
 
KHWD - Hayward, California, USA
Distancia de la estación: N 44km
Actualización: 21/07/2018 06:54
Despejado
Despejado
 Viento de NNO
Viento: NNO 11 km/h
Temperatura: 19°C
Rocío: 14°C
Humedad: 73%
Barómetro: 1013.5 hPa
Nubes: Despejado
Visibilidad: 16 km
2018/07/21 04:54 KHWD 210454Z 34006KT 10SM CLR 19/14 A2993 RMK AO2 SLP142 T01890139
KLVK - Livermore, California, USA
Distancia de la estación: NNE 51km
Actualización: 21/07/2018 06:53
Despejado
Despejado
 Viento de O
Viento: O 15 km/h
Temperatura: 22°C
Rocío: 13°C
Humedad: 57%
Barómetro: 1012.5 hPa
Nubes: Despejado
Visibilidad: 16 km
2018/07/21 04:53 KLVK 210453Z 28008KT 10SM CLR 22/13 A2990 RMK AO2 SLP122 T02220128